createdAt,value
2023-01-08T00:00:50.255Z,9.60
2023-01-08T00:03:18.318Z,9.60
2023-01-08T00:05:46.345Z,9.60
2023-01-08T00:08:14.494Z,9.50
2023-01-08T00:10:42.693Z,9.50
2023-01-08T00:13:10.622Z,9.50
2023-01-08T00:15:38.619Z,9.50
2023-01-08T00:18:08.030Z,9.50
2023-01-08T00:20:35.964Z,9.50
2023-01-08T00:23:03.956Z,9.40
2023-01-08T00:25:32.709Z,9.40
2023-01-08T00:28:00.721Z,9.40
2023-01-08T00:30:28.681Z,9.40
2023-01-08T00:32:56.676Z,9.40
2023-01-08T00:35:26.004Z,9.40
2023-01-08T00:37:54.023Z,9.40
2023-01-08T00:40:21.969Z,9.40
2023-01-08T00:42:50.163Z,9.30
2023-01-08T00:45:18.116Z,9.30
2023-01-08T00:47:46.034Z,9.30
2023-01-08T00:50:14.044Z,9.30
2023-01-08T00:52:43.334Z,9.30
2023-01-08T00:55:11.341Z,9.30
2023-01-08T00:57:40.398Z,9.30
2023-01-08T01:00:11.097Z,9.30
2023-01-08T01:02:39.535Z,9.30
2023-01-08T01:05:09.036Z,9.30
2023-01-08T01:07:36.990Z,9.20
2023-01-08T01:10:07.225Z,9.20
2023-01-08T01:12:35.168Z,9.20
2023-01-08T01:15:03.224Z,9.20
2023-01-08T01:17:31.171Z,9.20
2023-01-08T01:19:59.156Z,9.20
2023-01-08T01:22:27.127Z,9.20
2023-01-08T01:24:55.045Z,9.20
2023-01-08T01:27:24.391Z,9.10
2023-01-08T01:29:52.360Z,9.10
2023-01-08T01:32:20.707Z,9.10
2023-01-08T01:34:48.642Z,9.10
2023-01-08T01:37:16.854Z,9.10
2023-01-08T01:39:44.797Z,9.10
2023-01-08T01:42:36.436Z,9.10
2023-01-08T01:45:14.482Z,9.10
2023-01-08T01:47:43.164Z,9.10
2023-01-08T01:50:15.464Z,9.10
2023-01-08T01:52:46.773Z,9.10
2023-01-08T01:55:15.860Z,9.10
2023-01-08T01:57:47.318Z,9.10
2023-01-08T02:00:17.455Z,9.00
2023-01-08T02:02:45.737Z,9.10
2023-01-08T02:05:13.933Z,9.00
2023-01-08T02:07:50.062Z,9.00
2023-01-08T02:10:23.429Z,9.00
2023-01-08T02:12:57.678Z,9.00
2023-01-08T02:15:32.343Z,9.00
2023-01-08T02:18:06.552Z,9.00
2023-01-08T02:20:38.148Z,9.00
2023-01-08T02:23:20.167Z,9.00
2023-01-08T02:26:18.596Z,8.90
2023-01-08T02:28:50.631Z,8.90
2023-01-08T02:31:20.232Z,8.90
2023-01-08T02:33:48.413Z,8.90
2023-01-08T02:36:27.572Z,8.90
2023-01-08T02:39:09.881Z,8.90
2023-01-08T02:41:58.572Z,8.90
2023-01-08T02:44:35.605Z,8.90
2023-01-08T02:47:08.857Z,8.90
2023-01-08T02:49:43.786Z,8.80
2023-01-08T02:52:15.035Z,8.90
2023-01-08T02:54:45.486Z,8.80
2023-01-08T02:57:18.015Z,8.80
2023-01-08T02:59:49.818Z,8.80
2023-01-08T03:02:18.895Z,8.80
2023-01-08T03:04:54.051Z,8.80
2023-01-08T03:07:22.760Z,8.80
2023-01-08T03:09:50.982Z,8.80
2023-01-08T03:12:25.803Z,8.80
2023-01-08T03:14:59.183Z,8.80
2023-01-08T03:17:32.688Z,8.80
2023-01-08T03:20:04.115Z,8.80
2023-01-08T03:22:33.974Z,8.80
2023-01-08T03:25:03.136Z,8.70
2023-01-08T03:27:34.987Z,8.80
2023-01-08T03:30:05.446Z,8.80
2023-01-08T03:32:34.710Z,8.80
2023-01-08T03:35:05.277Z,8.80
2023-01-08T03:37:36.720Z,8.70
2023-01-08T03:40:10.241Z,8.70
2023-01-08T03:42:39.774Z,8.70
2023-01-08T03:45:08.933Z,8.70
2023-01-08T03:47:38.561Z,8.70
2023-01-08T03:50:10.538Z,8.70
2023-01-08T03:52:38.513Z,8.70
2023-01-08T03:55:07.129Z,8.70
2023-01-08T03:57:35.123Z,8.70
2023-01-08T04:00:06.428Z,8.70
2023-01-08T04:02:34.535Z,8.70
2023-01-08T04:05:02.533Z,8.70
2023-01-08T04:07:30.468Z,8.70
2023-01-08T04:09:58.353Z,8.70
2023-01-08T04:12:26.392Z,8.70
2023-01-08T04:14:54.384Z,8.70
2023-01-08T04:17:23.773Z,8.70
2023-01-08T04:19:51.751Z,8.60
2023-01-08T04:22:19.800Z,8.70
2023-01-08T04:24:47.780Z,8.60
2023-01-08T04:27:15.792Z,8.60
2023-01-08T04:29:43.824Z,8.60
2023-01-08T04:32:11.812Z,8.60
2023-01-08T04:34:41.141Z,8.60
2023-01-08T04:37:09.063Z,8.60
2023-01-08T04:39:37.070Z,8.60
2023-01-08T04:42:05.159Z,8.50
2023-01-08T04:44:33.130Z,8.50
2023-01-08T04:47:01.139Z,8.50
2023-01-08T04:49:29.081Z,8.50
2023-01-08T04:51:58.431Z,8.50
2023-01-08T04:54:26.471Z,8.50
2023-01-08T04:56:54.659Z,8.40
2023-01-08T04:59:22.624Z,8.40
2023-01-08T05:01:50.675Z,8.40
2023-01-08T05:04:18.717Z,8.40
2023-01-08T05:06:46.665Z,8.40
2023-01-08T05:09:16.006Z,8.30
2023-01-08T05:11:44.217Z,8.30
2023-01-08T05:14:12.394Z,8.30
2023-01-08T05:16:40.431Z,8.30
2023-01-08T05:19:10.364Z,8.30
2023-01-08T05:21:38.508Z,8.20
2023-01-08T05:24:06.931Z,8.20
2023-01-08T05:26:36.435Z,8.20
2023-01-08T05:29:04.597Z,8.20
2023-01-08T05:31:32.657Z,8.20
2023-01-08T05:34:00.882Z,8.20
2023-01-08T05:36:28.930Z,8.10
2023-01-08T05:38:56.882Z,8.10
2023-01-08T05:41:24.854Z,8.10
2023-01-08T05:43:54.207Z,8.10
2023-01-08T05:46:22.231Z,8.10
2023-01-08T05:48:50.209Z,8.10
2023-01-08T05:51:18.136Z,8.00
2023-01-08T05:53:46.131Z,8.00
2023-01-08T05:56:14.244Z,8.00
2023-01-08T05:58:42.219Z,7.90
2023-01-08T06:01:15.777Z,7.90
2023-01-08T06:03:43.833Z,7.90
2023-01-08T06:06:12.739Z,7.90
2023-01-08T06:08:40.921Z,7.90
2023-01-08T06:11:10.157Z,7.80
2023-01-08T06:13:38.771Z,7.80
2023-01-08T06:16:07.381Z,7.80
2023-01-08T06:18:36.974Z,7.80
2023-01-08T06:21:05.366Z,7.80
2023-01-08T06:23:33.536Z,7.80
2023-01-08T06:26:04.118Z,7.70
2023-01-08T06:28:32.827Z,7.70
2023-01-08T06:31:01.309Z,7.70
2023-01-08T06:33:29.647Z,7.70
2023-01-08T06:36:04.310Z,7.70
2023-01-08T06:38:33.082Z,7.70
2023-01-08T06:41:04.735Z,7.70
2023-01-08T06:43:32.802Z,7.60
2023-01-08T06:46:04.751Z,7.60
2023-01-08T06:48:33.056Z,7.60
2023-01-08T06:51:03.502Z,7.60
2023-01-08T06:53:31.756Z,7.60
2023-01-08T06:56:00.226Z,7.60
2023-01-08T06:58:28.887Z,7.60
2023-01-08T07:00:58.896Z,7.50
2023-01-08T07:03:27.129Z,7.50
2023-01-08T07:06:15.865Z,7.50
2023-01-08T07:08:43.876Z,7.50
2023-01-08T07:11:12.010Z,7.50
2023-01-08T07:13:40.398Z,7.50
2023-01-08T07:16:09.397Z,7.50
2023-01-08T07:18:38.017Z,7.40
2023-01-08T07:21:07.679Z,7.40
2023-01-08T07:23:38.367Z,7.40
2023-01-08T07:26:07.560Z,7.40
2023-01-08T07:28:36.010Z,7.40
2023-01-08T07:31:05.528Z,7.40
2023-01-08T07:33:33.574Z,7.40
2023-01-08T07:36:01.635Z,7.40
2023-01-08T07:38:29.777Z,7.40
2023-01-08T07:40:59.976Z,7.30
2023-01-08T07:43:29.985Z,7.30
2023-01-08T07:45:58.005Z,7.30
2023-01-08T07:48:25.937Z,7.30
2023-01-08T07:50:54.637Z,7.30
2023-01-08T07:53:22.573Z,7.30
2023-01-08T07:55:50.507Z,7.30
2023-01-08T07:58:19.879Z,7.30
2023-01-08T08:00:47.916Z,7.30
2023-01-08T08:03:15.927Z,7.30
2023-01-08T08:05:43.991Z,7.20
2023-01-08T08:08:13.689Z,7.20
2023-01-08T08:10:43.415Z,7.30
2023-01-08T08:13:11.927Z,7.20
2023-01-08T08:15:41.819Z,7.20
2023-01-08T08:18:29.367Z,7.20
2023-01-08T08:20:58.230Z,7.20
2023-01-08T08:23:26.541Z,7.20
2023-01-08T08:25:54.610Z,7.20
2023-01-08T08:28:22.736Z,7.20
2023-01-08T08:30:52.715Z,7.20
2023-01-08T08:33:20.725Z,7.20
2023-01-08T08:35:50.997Z,7.20
2023-01-08T08:38:19.081Z,7.20
2023-01-08T08:40:47.098Z,7.20
2023-01-08T08:43:15.020Z,7.20
2023-01-08T08:45:42.969Z,7.20
2023-01-08T08:48:12.319Z,7.20
2023-01-08T08:50:40.542Z,7.10
2023-01-08T08:53:09.243Z,7.10
2023-01-08T08:55:37.463Z,7.10
2023-01-08T08:58:07.631Z,7.10
2023-01-08T09:00:35.560Z,7.10
2023-01-08T09:03:03.720Z,7.20
2023-01-08T09:05:36.082Z,7.10
2023-01-08T09:08:04.138Z,7.10
2023-01-08T09:10:32.111Z,7.10
2023-01-08T09:13:00.093Z,7.10
2023-01-08T09:15:28.154Z,7.10
2023-01-08T09:17:56.780Z,7.10
2023-01-08T09:20:26.064Z,7.10
2023-01-08T09:22:55.427Z,7.10
2023-01-08T09:25:23.352Z,7.10
2023-01-08T09:27:59.158Z,7.10
2023-01-08T09:30:27.098Z,7.10
2023-01-08T09:33:01.378Z,7.10
2023-01-08T09:35:30.539Z,7.20
2023-01-08T09:38:00.430Z,7.20
2023-01-08T09:40:33.085Z,7.20
2023-01-08T09:43:03.034Z,7.20
2023-01-08T09:45:33.651Z,7.20
2023-01-08T09:48:05.593Z,7.20
2023-01-08T09:50:35.437Z,7.20
2023-01-08T09:53:05.011Z,7.20
2023-01-08T09:55:35.546Z,7.20
2023-01-08T09:58:04.128Z,7.20
2023-01-08T10:00:35.007Z,7.20
2023-01-08T10:03:03.361Z,7.30
2023-01-08T10:05:31.576Z,7.30
2023-01-08T10:07:59.571Z,7.30
2023-01-08T10:10:31.245Z,7.30
2023-01-08T10:13:00.293Z,7.30
2023-01-08T10:15:28.460Z,7.40
2023-01-08T10:18:03.422Z,7.40
2023-01-08T10:20:33.330Z,7.40
2023-01-08T10:23:11.315Z,7.40
2023-01-08T10:25:54.614Z,7.40
2023-01-08T10:28:24.486Z,7.50
2023-01-08T10:30:54.353Z,7.50
2023-01-08T10:33:25.402Z,7.50
2023-01-08T10:35:56.863Z,7.60
2023-01-08T10:38:28.015Z,7.60
2023-01-08T10:40:58.152Z,7.60
2023-01-08T10:43:30.197Z,7.60
2023-01-08T10:46:00.623Z,7.70
2023-01-08T10:48:33.708Z,7.70
2023-01-08T10:51:15.303Z,7.70
2023-01-08T10:53:43.336Z,7.80
2023-01-08T10:56:22.237Z,7.80
2023-01-08T10:58:50.753Z,7.80
2023-01-08T11:01:24.061Z,7.90
2023-01-08T11:03:53.468Z,7.90
2023-01-08T11:06:23.830Z,8.00
2023-01-08T11:08:53.782Z,8.00
2023-01-08T11:11:23.799Z,8.10
2023-01-08T11:13:59.281Z,8.10
2023-01-08T11:16:35.476Z,8.10
2023-01-08T11:19:03.803Z,8.20
2023-01-08T11:21:33.236Z,8.20
2023-01-08T11:24:17.995Z,8.20
2023-01-08T11:26:51.832Z,8.30
2023-01-08T11:29:25.442Z,8.30
2023-01-08T11:31:58.617Z,8.40
2023-01-08T11:34:32.580Z,8.40
2023-01-08T11:37:08.598Z,8.40
2023-01-08T11:39:38.672Z,8.40
2023-01-08T11:42:21.786Z,8.50
2023-01-08T11:45:00.554Z,8.50
2023-01-08T11:47:43.122Z,8.50
2023-01-08T11:50:23.527Z,8.60
2023-01-08T11:53:06.378Z,8.60
2023-01-08T11:55:47.805Z,8.60
2023-01-08T11:58:29.427Z,8.60
2023-01-08T12:01:04.871Z,8.70
2023-01-08T12:03:37.787Z,8.70
2023-01-08T12:06:23.259Z,8.70
2023-01-08T12:09:00.891Z,8.70
2023-01-08T12:11:31.345Z,8.80
2023-01-08T12:14:37.887Z,8.80
2023-01-08T12:17:31.458Z,8.80
2023-01-08T12:20:13.294Z,8.90
2023-01-08T12:22:49.660Z,8.90
2023-01-08T12:25:39.106Z,8.90
2023-01-08T12:28:18.703Z,8.90
2023-01-08T12:31:16.920Z,9.00
2023-01-08T12:33:49.192Z,9.00
2023-01-08T12:36:20.992Z,9.00
2023-01-08T12:38:55.435Z,9.00
2023-01-08T12:41:25.632Z,9.00
2023-01-08T12:43:57.604Z,9.00
2023-01-08T12:46:31.550Z,9.00
2023-01-08T12:49:00.478Z,9.10
2023-01-08T12:51:35.372Z,9.10
2023-01-08T12:54:10.890Z,9.10
2023-01-08T12:56:46.242Z,9.10
2023-01-08T12:59:29.580Z,9.10
2023-01-08T13:02:06.390Z,9.10
2023-01-08T13:04:42.005Z,9.20
2023-01-08T13:07:18.921Z,9.10
2023-01-08T13:09:47.245Z,9.20
2023-01-08T13:12:16.630Z,9.20
2023-01-08T13:14:50.187Z,9.20
2023-01-08T13:17:22.450Z,9.20
2023-01-08T13:19:54.988Z,9.20
2023-01-08T13:22:28.584Z,9.20
2023-01-08T13:25:33.047Z,9.20
2023-01-08T13:28:02.015Z,9.20
2023-01-08T13:30:42.300Z,9.20
2023-01-08T13:33:39.811Z,9.20
2023-01-08T13:36:24.154Z,9.20
2023-01-08T13:39:04.430Z,9.20
2023-01-08T13:41:33.689Z,9.20
2023-01-08T13:44:05.221Z,9.20
2023-01-08T13:46:36.922Z,9.20
2023-01-08T13:49:07.946Z,9.20
2023-01-08T13:51:42.680Z,9.20
2023-01-08T13:54:37.462Z,9.20
2023-01-08T13:57:14.398Z,9.30
2023-01-08T13:59:44.530Z,9.20
2023-01-08T14:02:28.802Z,9.30
2023-01-08T14:04:59.483Z,9.30
2023-01-08T14:07:28.244Z,9.30
2023-01-08T14:10:07.840Z,9.20
2023-01-08T14:12:36.231Z,9.20
2023-01-08T14:15:09.944Z,9.20
2023-01-08T14:17:38.263Z,9.20
2023-01-08T14:20:13.061Z,9.20
2023-01-08T14:22:43.091Z,9.20
2023-01-08T14:25:18.126Z,9.20
2023-01-08T14:27:56.329Z,9.20
2023-01-08T14:30:24.878Z,9.20
2023-01-08T14:32:53.391Z,9.20
2023-01-08T14:35:29.122Z,9.20
2023-01-08T14:37:57.310Z,9.20
2023-01-08T14:40:30.746Z,9.10
2023-01-08T14:43:02.498Z,9.20
2023-01-08T14:45:32.683Z,9.10
2023-01-08T14:48:02.596Z,9.10
2023-01-08T14:50:35.268Z,9.10
2023-01-08T14:53:08.311Z,9.10
2023-01-08T14:55:42.733Z,9.10
2023-01-08T14:58:15.713Z,9.10
2023-01-08T15:00:44.185Z,9.10
2023-01-08T15:03:33.821Z,9.10
2023-01-08T15:06:03.588Z,9.00
2023-01-08T15:08:37.328Z,9.10
2023-01-08T15:11:07.411Z,9.00
2023-01-08T15:13:38.218Z,9.00
2023-01-08T15:16:09.728Z,9.00
2023-01-08T15:18:46.684Z,9.00
2023-01-08T15:21:21.088Z,9.00
2023-01-08T15:23:52.403Z,8.90
2023-01-08T15:26:20.426Z,8.90
2023-01-08T15:28:52.729Z,8.90
2023-01-08T15:31:31.589Z,8.90
2023-01-08T15:34:01.456Z,8.90
2023-01-08T15:36:30.840Z,8.90
2023-01-08T15:38:58.815Z,8.80
2023-01-08T15:41:44.626Z,8.80
2023-01-08T15:44:13.624Z,8.80
2023-01-08T15:46:41.653Z,8.80
2023-01-08T15:49:10.887Z,8.80
2023-01-08T15:51:44.834Z,8.80
2023-01-08T15:54:13.742Z,8.80
2023-01-08T15:56:41.794Z,8.80
2023-01-08T15:59:09.845Z,8.70
2023-01-08T16:01:37.964Z,8.70
2023-01-08T16:04:06.305Z,8.70
2023-01-08T16:06:36.105Z,8.70
2023-01-08T16:09:05.536Z,8.70
2023-01-08T16:11:33.544Z,8.60
2023-01-08T16:14:01.502Z,8.60
2023-01-08T16:16:29.647Z,8.60
2023-01-08T16:18:57.639Z,8.60
2023-01-08T16:21:25.643Z,8.50
2023-01-08T16:23:53.847Z,8.50
2023-01-08T16:26:23.180Z,8.50
2023-01-08T16:28:51.159Z,8.50
2023-01-08T16:31:19.153Z,8.40
2023-01-08T16:33:47.218Z,8.40
2023-01-08T16:36:15.304Z,8.40
2023-01-08T16:38:43.215Z,8.40
2023-01-08T16:41:11.255Z,8.40
2023-01-08T16:43:42.987Z,8.40
2023-01-08T16:46:16.331Z,8.40
2023-01-08T16:48:44.614Z,8.40
2023-01-08T16:51:12.644Z,8.40
2023-01-08T16:53:40.809Z,8.40
2023-01-08T16:56:09.784Z,8.30
2023-01-08T16:58:38.658Z,8.30
2023-01-08T17:01:12.299Z,8.30
2023-01-08T17:03:40.468Z,8.30
2023-01-08T17:06:10.843Z,8.40
2023-01-08T17:08:40.286Z,8.30
2023-01-08T17:11:10.088Z,8.30
2023-01-08T17:13:38.363Z,8.30
2023-01-08T17:16:07.954Z,8.30
2023-01-08T17:18:38.024Z,8.30
2023-01-08T17:21:06.666Z,8.30
2023-01-08T17:23:34.843Z,8.30
2023-01-08T17:26:06.711Z,8.30
2023-01-08T17:28:35.057Z,8.30
2023-01-08T17:31:04.637Z,8.30
2023-01-08T17:33:34.948Z,8.30
2023-01-08T17:36:10.793Z,8.30
2023-01-08T17:38:38.772Z,8.30
2023-01-08T17:41:08.576Z,8.30
2023-01-08T17:43:36.750Z,8.30
2023-01-08T17:46:05.420Z,8.30
2023-01-08T17:48:33.840Z,8.30
2023-01-08T17:51:08.615Z,8.30
2023-01-08T17:53:38.844Z,8.30
2023-01-08T17:56:07.636Z,8.30
2023-01-08T17:58:35.871Z,8.40
2023-01-08T18:01:04.244Z,8.30
2023-01-08T18:03:32.258Z,8.30
2023-01-08T18:06:00.218Z,8.30
2023-01-08T18:08:28.262Z,8.30
2023-01-08T18:11:02.070Z,8.30
2023-01-08T18:13:30.094Z,8.30
2023-01-08T18:16:03.737Z,8.30
2023-01-08T18:18:31.969Z,8.30
2023-01-08T18:20:59.926Z,8.30
2023-01-08T18:23:27.940Z,8.30
2023-01-08T18:25:57.401Z,8.30
2023-01-08T18:28:25.391Z,8.30
2023-01-08T18:30:53.348Z,8.30
2023-01-08T18:33:21.295Z,8.30
2023-01-08T18:35:49.235Z,8.30
2023-01-08T18:38:17.275Z,8.30
2023-01-08T18:40:45.944Z,8.30
2023-01-08T18:43:15.291Z,8.30
2023-01-08T18:45:43.319Z,8.30
2023-01-08T18:48:11.518Z,8.20
2023-01-08T18:50:40.356Z,8.20
2023-01-08T18:53:08.586Z,8.20
2023-01-08T18:55:37.914Z,8.20
2023-01-08T18:58:05.967Z,8.20
2023-01-08T19:00:37.406Z,8.20
2023-01-08T19:03:08.827Z,8.20
2023-01-08T19:05:41.555Z,8.20
2023-01-08T19:08:09.789Z,8.20
2023-01-08T19:10:38.306Z,8.20
2023-01-08T19:13:06.868Z,8.20
2023-01-08T19:15:36.607Z,8.20
2023-01-08T19:18:06.042Z,8.10
2023-01-08T19:20:33.979Z,8.10
2023-01-08T19:23:02.023Z,8.10
2023-01-08T19:25:30.028Z,8.10
2023-01-08T19:27:57.947Z,8.10
2023-01-08T19:30:26.226Z,8.10
2023-01-08T19:32:55.496Z,8.10
2023-01-08T19:35:23.477Z,8.10
2023-01-08T19:37:51.515Z,8.10
2023-01-08T19:40:19.857Z,8.10
2023-01-08T19:43:05.200Z,8.10
2023-01-08T19:45:33.249Z,8.10
2023-01-08T19:48:02.614Z,8.10
2023-01-08T19:50:31.914Z,8.10
2023-01-08T19:52:59.895Z,8.10
2023-01-08T19:55:27.996Z,8.10
2023-01-08T19:57:55.972Z,8.10
2023-01-08T20:00:23.977Z,8.00
2023-01-08T20:02:52.864Z,8.00
2023-01-08T20:05:22.255Z,8.00
2023-01-08T20:07:52.908Z,8.00
2023-01-08T20:10:21.085Z,8.00
2023-01-08T20:12:49.014Z,8.00
2023-01-08T20:15:18.178Z,8.00
2023-01-08T20:17:46.181Z,8.00
2023-01-08T20:20:14.340Z,8.00
2023-01-08T20:22:43.685Z,8.10
2023-01-08T20:25:11.776Z,8.00
2023-01-08T20:27:39.812Z,8.00
2023-01-08T20:30:10.326Z,8.00
2023-01-08T20:32:38.387Z,8.00
2023-01-08T20:35:07.103Z,8.00
2023-01-08T20:37:35.110Z,8.00
2023-01-08T20:40:04.648Z,8.00
2023-01-08T20:42:34.491Z,8.00
2023-01-08T20:45:02.767Z,8.00
2023-01-08T20:47:31.116Z,7.90
2023-01-08T20:49:59.507Z,8.00
2023-01-08T20:52:30.400Z,7.90
2023-01-08T20:54:58.335Z,7.90
2023-01-08T20:57:28.265Z,7.90
2023-01-08T20:59:56.308Z,7.90
2023-01-08T21:02:24.294Z,7.90
2023-01-08T21:04:52.243Z,7.90
2023-01-08T21:07:20.258Z,7.90
2023-01-08T21:09:48.266Z,7.90
2023-01-08T21:12:16.201Z,7.90
2023-01-08T21:14:45.564Z,7.90
2023-01-08T21:17:13.559Z,7.90
2023-01-08T21:19:42.087Z,7.90
2023-01-08T21:22:10.188Z,7.90
2023-01-08T21:24:38.220Z,7.90
2023-01-08T21:27:06.147Z,7.90
2023-01-08T21:29:34.304Z,7.90
2023-01-08T21:32:05.143Z,8.00
2023-01-08T21:34:33.116Z,8.00
2023-01-08T21:37:02.482Z,8.00
2023-01-08T21:39:32.875Z,8.00
2023-01-08T21:42:18.403Z,8.00
2023-01-08T21:45:04.102Z,8.00
2023-01-08T21:47:33.455Z,8.00
2023-01-08T21:50:01.462Z,8.00
2023-01-08T21:52:46.753Z,8.00
2023-01-08T21:55:16.892Z,8.10
2023-01-08T21:57:45.336Z,8.00
2023-01-08T22:00:15.371Z,8.10
2023-01-08T22:02:44.785Z,8.00
2023-01-08T22:05:12.811Z,8.00
2023-01-08T22:07:40.758Z,8.00
2023-01-08T22:10:09.973Z,8.00
2023-01-08T22:12:37.915Z,8.10
2023-01-08T22:15:06.865Z,8.00
2023-01-08T22:17:34.917Z,8.10
2023-01-08T22:20:06.721Z,8.00
2023-01-08T22:22:34.757Z,8.10
2023-01-08T22:25:02.737Z,8.00
2023-01-08T22:27:31.348Z,8.10
2023-01-08T22:29:59.377Z,8.00
2023-01-08T22:32:27.310Z,8.00
2023-01-08T22:34:55.256Z,8.00
2023-01-08T22:37:24.556Z,8.00
2023-01-08T22:39:52.581Z,8.00
2023-01-08T22:42:20.587Z,8.00
2023-01-08T22:44:50.531Z,8.00
2023-01-08T22:47:18.480Z,8.00
2023-01-08T22:49:46.436Z,8.00
2023-01-08T22:52:14.595Z,8.00
2023-01-08T22:54:44.036Z,8.00
2023-01-08T22:57:12.056Z,8.00
2023-01-08T22:59:40.102Z,8.00
2023-01-08T23:02:08.021Z,7.90
2023-01-08T23:04:35.988Z,7.90
2023-01-08T23:07:04.052Z,7.90
2023-01-08T23:09:32.133Z,7.90
2023-01-08T23:12:01.487Z,7.90
2023-01-08T23:14:29.735Z,7.90
2023-01-08T23:16:57.725Z,7.90
2023-01-08T23:19:25.787Z,7.90
2023-01-08T23:21:53.773Z,7.90
2023-01-08T23:24:21.748Z,7.90
2023-01-08T23:26:49.863Z,7.90
2023-01-08T23:29:19.224Z,7.90
2023-01-08T23:31:47.731Z,7.90
2023-01-08T23:34:16.014Z,7.80
2023-01-08T23:36:44.423Z,7.80
2023-01-08T23:39:12.412Z,7.80
2023-01-08T23:41:40.426Z,7.80
2023-01-08T23:44:11.214Z,7.80
2023-01-08T23:46:40.628Z,7.80
2023-01-08T23:49:09.179Z,7.80
2023-01-08T23:51:37.968Z,7.80
2023-01-08T23:54:05.971Z,7.70
2023-01-08T23:56:33.942Z,7.70
2023-01-08T23:59:02.099Z,7.70
